Time;durP1;ratioP1;P1;durP2;ratioP2;P2;SDS_P1;SDS_P2;PMS_P1;PMS_P2;Temp;Humidity;BMP_temperature;BMP_pressure;BME280_temperature;BME280_humidity;BME280_pressure;Samples;Min_cycle;Max_cycle;Signal;HPM_P1;HPM_P2
2022/08/01 00:00:20;;;;;;;10.40;2.35;;;;;;;18.47;67.58;100279.08;1703691;83;20999;-43
2022/08/01 00:02:48;;;;;;;3.87;2.12;;;;;;;18.54;66.74;100278.26;1703525;84;20912;-42
2022/08/01 00:05:15;;;;;;;8.23;2.30;;;;;;;18.60;66.08;100281.88;1703729;84;20983;-43
2022/08/01 00:07:42;;;;;;;9.68;2.65;;;;;;;18.65;66.09;100286.39;1703557;83;21034;-43
2022/08/01 00:10:12;;;;;;;17.25;2.75;;;;;;;18.66;65.81;100289.84;1703587;84;20948;-43
2022/08/01 00:12:40;;;;;;;7.70;2.12;;;;;;;18.66;65.52;100289.84;1703499;84;20948;-42
2022/08/01 00:15:09;;;;;;;18.00;3.20;;;;;;;18.67;64.93;100291.08;1703329;82;21572;-43
2022/08/01 00:17:36;;;;;;;11.55;2.70;;;;;;;18.71;64.61;100292.22;1703622;82;20993;-43
2022/08/01 00:20:05;;;;;;;12.88;2.47;;;;;;;18.72;64.27;100289.98;1683472;84;21197;-43
2022/08/01 00:22:33;;;;;;;13.50;2.33;;;;;;;18.73;63.45;100281.19;1703510;84;20982;-43
2022/08/01 00:25:00;;;;;;;7.70;2.20;;;;;;;18.78;63.35;100284.39;1683421;84;21011;-43
2022/08/01 00:27:27;;;;;;;10.75;2.15;;;;;;;18.83;63.17;100283.69;1703513;83;20987;-42
2022/08/01 00:29:54;;;;;;;3.00;1.67;;;;;;;18.88;62.10;100279.03;1703411;83;20932;-43
2022/08/01 00:32:20;;;;;;;6.47;2.05;;;;;;;18.98;61.52;100282.43;1703477;82;21060;-43
2022/08/01 00:34:48;;;;;;;7.62;1.67;;;;;;;19.04;61.77;100280.80;1703549;84;20987;-43
2022/08/01 00:37:15;;;;;;;3.20;1.95;;;;;;;19.05;61.74;100274.16;1703580;84;20968;-43
2022/08/01 00:39:43;;;;;;;7.80;1.70;;;;;;;19.10;60.57;100270.80;1703499;84;20940;-43
2022/08/01 00:42:11;;;;;;;9.38;2.00;;;;;;;19.18;59.80;100267.75;1703664;84;20976;-43
2022/08/01 00:44:38;;;;;;;8.43;1.50;;;;;;;19.30;59.62;100265.34;1703610;83;21152;-43
2022/08/01 00:47:05;;;;;;;8.30;1.52;;;;;;;19.35;59.87;100270.70;1703304;83;20983;-43
2022/08/01 00:49:33;;;;;;;4.37;1.40;;;;;;;19.38;59.58;100270.52;1703683;84;21579;-43
2022/08/01 00:52:00;;;;;;;8.43;1.92;;;;;;;19.42;58.96;100272.96;1724294;83;20918;-44
2022/08/01 00:54:27;;;;;;;4.62;1.77;;;;;;;19.47;58.70;100272.25;1726860;83;20998;-43
2022/08/01 00:56:54;;;;;;;10.48;1.92;;;;;;;19.55;58.45;100271.77;1726819;83;21244;-43
2022/08/01 00:59:22;;;;;;;10.78;2.22;;;;;;;19.58;58.60;100262.40;1726835;83;20946;-43
2022/08/01 01:01:49;;;;;;;8.55;1.75;;;;;;;19.61;57.71;100266.19;1727003;83;21061;-43
2022/08/01 01:04:17;;;;;;;7.37;2.22;;;;;;;19.66;58.00;100261.49;1726795;83;20986;-43
2022/08/01 01:06:49;;;;;;;9.38;3.45;;;;;;;19.68;57.44;100259.14;1726880;83;21042;-43
2022/08/01 01:09:45;;;;;;;10.32;2.27;;;;;;;19.72;57.92;100258.49;1726748;81;21151;-43
2022/08/01 01:12:26;;;;;;;11.30;2.30;;;;;;;19.72;57.67;100257.18;1726810;83;20984;-44
2022/08/01 01:15:10;;;;;;;10.85;2.52;;;;;;;19.73;57.12;100256.73;1726855;81;21548;-43
2022/08/01 01:17:58;;;;;;;10.48;2.95;;;;;;;19.78;56.87;100254.17;1726886;83;20986;-43
2022/08/01 01:20:37;;;;;;;17.23;2.83;;;;;;;19.81;56.89;100240.03;1726852;83;21017;-42
2022/08/01 01:23:40;;;;;;;11.57;2.92;;;;;;;19.85;56.10;100240.22;1726998;83;21271;-43
2022/08/01 01:26:47;;;;;;;7.10;2.17;;;;;;;19.89;56.89;100241.71;1689490;82;21034;-43
2022/08/01 01:29:30;;;;;;;13.45;2.72;;;;;;;19.88;57.27;100234.77;1711018;83;20982;-43
2022/08/01 01:32:14;;;;;;;11.30;3.00;;;;;;;19.83;56.99;100230.27;1726653;82;21568;-43
2022/08/01 01:34:43;;;;;;;13.53;2.52;;;;;;;19.82;57.12;100224.16;1726752;83;21014;-43
2022/08/01 01:37:17;;;;;;;8.73;2.10;;;;;;;19.80;57.15;100227.36;1726702;83;21221;-43
2022/08/01 01:39:45;;;;;;;10.82;2.92;;;;;;;19.80;56.89;100222.59;1726750;83;21217;-43
2022/08/01 01:42:12;;;;;;;3.17;1.80;;;;;;;19.85;56.87;100231.02;1700225;83;20977;-43
2022/08/01 01:44:39;;;;;;;5.70;1.60;;;;;;;19.87;57.11;100232.26;1726714;83;20974;-43
2022/08/01 01:47:06;;;;;;;2.92;1.20;;;;;;;19.88;56.83;100233.94;1726835;83;21516;-43
2022/08/01 01:49:33;;;;;;;5.08;1.52;;;;;;;19.89;56.71;100239.09;1726662;83;21319;-43
2022/08/01 01:52:01;;;;;;;8.05;2.08;;;;;;;19.89;57.13;100241.71;1709058;83;21086;-43
2022/08/01 01:54:39;;;;;;;11.95;2.42;;;;;;;19.88;57.32;100233.94;1703426;84;21050;-42
2022/08/01 01:57:06;;;;;;;13.53;2.75;;;;;;;19.88;57.29;100226.89;1703607;84;21498;-43
2022/08/01 01:59:36;;;;;;;14.03;2.92;;;;;;;19.90;57.39;100227.64;1703606;82;20932;-43
2022/08/01 02:02:04;;;;;;;10.25;2.60;;;;;;;19.92;57.41;100227.59;1703568;84;21103;-42
2022/08/01 02:04:32;;;;;;;15.53;2.50;;;;;;;19.93;57.61;100222.72;1703488;83;21004;-43
2022/08/01 02:07:00;;;;;;;7.65;2.60;;;;;;;19.93;57.82;100220.91;1703686;83;21545;-43
2022/08/01 02:09:29;;;;;;;7.15;2.40;;;;;;;19.93;58.24;100220.09;1703385;83;21552;-43
2022/08/01 02:11:56;;;;;;;15.13;3.70;;;;;;;19.92;57.89;100227.11;1703771;84;21706;-43
2022/08/01 02:14:23;;;;;;;8.85;3.50;;;;;;;19.92;58.29;100227.11;1703563;82;21295;-43
2022/08/01 02:16:50;;;;;;;9.10;2.95;;;;;;;19.90;58.26;100223.70;1703409;84;20939;-43
2022/08/01 02:19:20;;;;;;;6.60;2.90;;;;;;;19.89;58.50;100223.81;1703423;84;20991;-43
2022/08/01 02:22:01;;;;;;;6.22;2.95;;;;;;;19.88;58.98;100224.75;1703420;83;21446;-43
2022/08/01 02:24:58;;;;;;;11.45;2.65;;;;;;;19.86;59.04;100231.88;1703582;84;20916;-43
2022/08/01 02:27:33;;;;;;;4.70;2.65;;;;;;;19.84;59.92;100229.82;1703776;83;21270;-43
2022/08/01 02:30:07;;;;;;;8.85;2.70;;;;;;;19.80;60.29;100223.41;1683305;84;21051;-43
2022/08/01 02:32:40;;;;;;;14.45;3.50;;;;;;;19.76;60.97;100221.92;1703549;84;20944;-43
2022/08/01 02:35:11;;;;;;;18.48;3.95;;;;;;;19.72;61.52;100219.11;1703118;84;20908;-42
2022/08/01 02:37:38;;;;;;;7.62;3.20;;;;;;;19.68;62.77;100222.86;1703560;84;21553;-43
2022/08/01 02:40:07;;;;;;;10.08;3.77;;;;;;;19.64;66.00;100218.25;1703551;84;21258;-43
2022/08/01 02:42:34;;;;;;;7.55;2.92;;;;;;;19.57;69.28;100218.26;1703326;84;21071;-42
2022/08/01 02:45:03;;;;;;;11.80;3.40;;;;;;;19.48;71.01;100218.34;1703531;84;20936;-44
2022/08/01 02:47:31;;;;;;;9.50;3.80;;;;;;;19.42;72.54;100226.58;1703306;83;20991;-43
2022/08/01 02:49:57;;;;;;;3.52;3.08;;;;;;;19.36;75.49;100232.20;1703348;83;20939;-43
2022/08/01 02:52:24;;;;;;;11.12;3.05;;;;;;;19.28;77.58;100232.64;1707231;82;21993;-43
2022/08/01 02:54:53;;;;;;;11.95;3.33;;;;;;;19.21;78.38;100240.02;1703482;84;20991;-43
2022/08/01 02:57:21;;;;;;;8.63;3.60;;;;;;;19.16;79.74;100229.41;1703408;84;21031;-43
2022/08/01 02:59:48;;;;;;;8.58;3.37;;;;;;;19.07;80.73;100242.59;1703432;84;20995;-44
2022/08/01 03:02:15;;;;;;;5.15;3.20;;;;;;;18.99;81.80;100239.57;1703615;84;21022;-43
2022/08/01 03:06:48;;;;;;;6.92;3.80;;;;;;;18.90;83.79;100214.68;1797627;79;22655;-43
2022/08/01 03:09:16;;;;;;;6.30;3.10;;;;;;;18.80;85.01;100216.98;1757403;81;20940;-43
2022/08/01 03:11:43;;;;;;;7.00;3.25;;;;;;;18.74;86.29;100216.02;1738263;81;21095;-43
2022/08/01 03:14:11;;;;;;;5.62;3.20;;;;;;;18.69;87.95;100235.94;1754650;81;21087;-43
2022/08/01 03:16:39;;;;;;;5.53;3.27;;;;;;;18.66;88.72;100231.72;1719879;82;20960;-44
2022/08/01 03:19:08;;;;;;;3.95;2.65;;;;;;;18.64;89.74;100230.97;1715734;83;20943;-42
2022/08/01 03:21:35;;;;;;;6.12;3.35;;;;;;;18.62;90.73;100223.66;1715964;83;21010;-42
2022/08/01 03:24:03;;;;;;;8.40;3.62;;;;;;;18.62;91.44;100239.84;1686962;85;21091;-42
2022/08/01 03:26:32;;;;;;;11.40;3.92;;;;;;;18.63;91.78;100227.97;1708518;84;21036;-42
2022/08/01 03:29:02;;;;;;;7.80;4.25;;;;;;;18.64;93.23;100238.83;1708263;84;20951;-41
2022/08/01 03:31:30;;;;;;;10.20;4.35;;;;;;;18.64;93.72;100237.52;1708257;83;21241;-43
2022/08/01 03:33:57;;;;;;;11.90;4.53;;;;;;;18.66;94.18;100233.03;1708313;83;21038;-43
2022/08/01 03:36:30;;;;;;;9.20;3.92;;;;;;;18.66;94.68;100239.59;1708380;83;21235;-42
2022/08/01 03:38:57;;;;;;;14.20;4.12;;;;;;;18.67;95.28;100233.41;1707911;84;21010;-43
2022/08/01 03:41:27;;;;;;;10.28;4.10;;;;;;;18.70;95.72;100244.66;1708563;84;21003;-42
2022/08/01 03:43:57;;;;;;;8.60;4.20;;;;;;;18.73;95.99;100239.23;1708382;84;21011;-42
2022/08/01 03:46:29;;;;;;;10.28;3.85;;;;;;;18.76;96.49;100232.51;1708422;84;21030;-42
2022/08/01 03:49:00;;;;;;;12.68;4.62;;;;;;;18.76;96.63;100225.95;1705112;84;21593;-43
2022/08/01 03:51:27;;;;;;;12.40;4.17;;;;;;;18.78;96.67;100239.81;1708605;84;21612;-43
2022/08/01 03:53:54;;;;;;;8.98;4.12;;;;;;;18.78;97.07;100232.81;1708394;84;20999;-42
2022/08/01 03:56:21;;;;;;;6.40;3.37;;;;;;;18.80;97.66;100227.02;1708495;84;21046;-42
2022/08/01 03:58:48;;;;;;;6.60;4.10;;;;;;;18.78;98.13;100224.09;1708561;84;22220;-42
2022/08/01 04:01:15;;;;;;;13.62;4.50;;;;;;;18.78;98.54;100224.09;1680253;84;21248;-43
2022/08/01 04:03:43;;;;;;;6.25;4.20;;;;;;;18.80;98.54;100222.22;1680058;84;21047;-42
2022/08/01 04:06:10;;;;;;;12.28;4.33;;;;;;;18.82;98.84;100219.08;1700578;84;20956;-42
2022/08/01 04:08:38;;;;;;;8.08;4.08;;;;;;;18.83;99.15;100224.70;1695823;84;21103;-43
2022/08/01 04:11:05;;;;;;;6.12;3.77;;;;;;;18.85;99.24;100221.97;1695847;84;20965;-43
2022/08/01 04:13:32;;;;;;;5.83;3.60;;;;;;;18.87;99.54;100220.97;1695666;84;21296;-43
2022/08/01 04:16:00;;;;;;;7.12;3.77;;;;;;;18.89;99.73;100228.73;1695784;84;21569;-43
2022/08/01 04:18:26;;;;;;;8.40;3.75;;;;;;;18.91;100.00;100219.85;1695220;84;20984;-42
2022/08/01 04:20:53;;;;;;;10.88;3.98;;;;;;;18.95;100.00;100223.98;1695219;84;21558;-43
2022/08/01 04:23:23;;;;;;;7.25;4.12;;;;;;;18.99;100.00;100212.03;1695365;84;20960;-44
2022/08/01 04:25:51;;;;;;;9.35;4.42;;;;;;;19.04;100.00;100210.84;1695528;84;21785;-43
2022/08/01 04:28:19;;;;;;;10.25;3.70;;;;;;;19.11;100.00;100204.78;1695266;84;21019;-43
2022/08/01 04:30:46;;;;;;;17.45;4.45;;;;;;;19.17;100.00;100207.03;1695345;83;20921;-44
2022/08/01 04:33:16;;;;;;;11.00;5.05;;;;;;;19.24;100.00;100208.36;1695458;84;21024;-43
2022/08/01 04:35:46;;;;;;;15.68;4.83;;;;;;;19.31;100.00;100211.47;1666186;84;21050;-42
2022/08/01 04:38:17;;;;;;;12.75;4.65;;;;;;;19.39;100.00;100211.84;1695354;84;21315;-43
2022/08/01 04:40:47;;;;;;;8.45;4.85;;;;;;;19.47;100.00;100210.09;1665533;84;20999;-43
2022/08/01 04:43:14;;;;;;;6.62;4.25;;;;;;;19.50;100.00;100206.45;1695435;84;20996;-43
2022/08/01 04:45:43;;;;;;;12.45;3.95;;;;;;;19.51;100.00;100202.40;1695247;84;21011;-42
2022/08/01 04:48:10;;;;;;;10.50;4.15;;;;;;;19.52;100.00;100208.02;1695574;84;20968;-42
2022/08/01 04:50:37;;;;;;;10.15;4.15;;;;;;;19.52;100.00;100214.59;1695234;84;21135;-43
2022/08/01 04:53:04;;;;;;;11.33;4.00;;;;;;;19.53;100.00;100221.52;1695224;84;20984;-43
2022/08/01 04:55:32;;;;;;;3.90;3.30;;;;;;;19.56;100.00;100220.96;1695260;84;20980;-43
2022/08/01 04:57:59;;;;;;;8.10;3.52;;;;;;;19.59;100.00;100220.80;1695333;84;21644;-42
2022/08/01 05:00:26;;;;;;;9.90;3.60;;;;;;;19.63;100.00;100213.11;1695272;84;21031;-43
2022/08/01 05:02:53;;;;;;;11.22;4.45;;;;;;;19.65;100.00;100205.98;1695218;84;21284;-43
2022/08/01 05:05:20;;;;;;;12.93;4.10;;;;;;;19.68;100.00;100193.98;1695162;83;21008;-42
2022/08/01 05:07:47;;;;;;;5.30;3.42;;;;;;;19.72;100.00;100199.91;1665498;84;21004;-43
2022/08/01 05:10:14;;;;;;;9.88;3.08;;;;;;;19.74;100.00;100203.28;1695213;83;21031;-43
2022/08/01 05:12:41;;;;;;;8.43;3.15;;;;;;;19.79;100.00;100207.28;1693314;84;21031;-43
2022/08/01 05:15:09;;;;;;;9.23;2.87;;;;;;;19.84;100.00;100206.19;1672224;84;21138;-42
2022/08/01 05:17:36;;;;;;;3.45;2.72;;;;;;;19.90;100.00;100203.17;1657707;85;21008;-43
2022/08/01 05:20:06;;;;;;;5.20;2.35;;;;;;;19.93;99.34;100196.45;1702546;82;20996;-42
2022/08/01 05:22:33;;;;;;;5.58;2.35;;;;;;;19.98;99.23;100200.11;1733510;82;20901;-42
2022/08/01 05:25:00;;;;;;;3.08;2.50;;;;;;;20.03;98.87;100201.49;1707218;82;21475;-43
2022/08/01 05:27:27;;;;;;;2.17;1.98;;;;;;;20.09;98.27;100197.19;1716124;82;21071;-42
2022/08/01 05:29:54;;;;;;;4.12;2.00;;;;;;;20.16;97.80;100209.94;1726032;82;20922;-43
2022/08/01 05:32:21;;;;;;;4.47;1.90;;;;;;;20.23;97.72;100212.09;1718631;82;20945;-43
2022/08/01 05:34:48;;;;;;;5.20;2.90;;;;;;;20.33;97.79;100208.87;1720401;82;20946;-42
2022/08/01 05:37:15;;;;;;;8.33;3.58;;;;;;;20.47;98.56;100218.50;1720291;82;21531;-43
2022/08/01 05:39:42;;;;;;;5.33;3.85;;;;;;;20.62;98.52;100217.53;1714294;83;21239;-42
2022/08/01 05:42:09;;;;;;;3.35;2.95;;;;;;;20.74;98.23;100229.50;1734608;82;20939;-43
2022/08/01 05:44:36;;;;;;;9.13;3.55;;;;;;;20.82;97.53;100236.44;1735020;82;21570;-43
2022/08/01 05:47:03;;;;;;;3.47;2.50;;;;;;;20.86;97.34;100231.83;1735310;82;21585;-43
2022/08/01 05:49:30;;;;;;;3.25;2.60;;;;;;;20.85;96.99;100224.88;1735271;82;21474;-42
2022/08/01 05:51:57;;;;;;;4.25;2.47;;;;;;;20.82;97.12;100223.28;1735137;81;21070;-43
2022/08/01 05:54:24;;;;;;;3.98;2.47;;;;;;;20.81;97.51;100233.44;1735186;82;20921;-42
2022/08/01 05:56:51;;;;;;;2.25;2.15;;;;;;;20.81;97.79;100230.80;1735245;81;21016;-43
2022/08/01 05:59:19;;;;;;;2.85;2.65;;;;;;;20.80;98.06;100228.66;1735372;82;20941;-44
2022/08/01 06:01:46;;;;;;;2.72;2.50;;;;;;;20.74;98.27;100243.50;1735305;82;21562;-42
2022/08/01 06:04:12;;;;;;;4.28;2.77;;;;;;;20.70;98.40;100245.10;1735114;81;21257;-42
2022/08/01 06:06:40;;;;;;;5.40;2.47;;;;;;;20.64;98.45;100248.50;1732017;81;20918;-42
2022/08/01 06:09:10;;;;;;;4.05;2.67;;;;;;;20.59;98.46;100226.93;1706558;82;21089;-42
2022/08/01 06:11:38;;;;;;;10.35;3.02;;;;;;;20.54;98.45;100217.16;1712823;81;21517;-42
2022/08/01 06:14:05;;;;;;;5.70;2.98;;;;;;;20.50;98.52;100218.30;1712740;82;20937;-42
2022/08/01 06:16:32;;;;;;;6.08;2.72;;;;;;;20.47;98.04;100227.70;1692188;82;21233;-42
2022/08/01 06:18:59;;;;;;;9.65;3.08;;;;;;;20.41;98.33;100231.55;1726152;82;21490;-42
2022/08/01 06:21:26;;;;;;;5.58;3.27;;;;;;;20.37;98.12;100243.20;1713149;82;20917;-41
2022/08/01 06:23:52;;;;;;;4.75;3.45;;;;;;;20.28;98.30;100239.37;1715976;82;20989;-42
2022/08/01 06:26:19;;;;;;;5.20;2.33;;;;;;;20.19;98.42;100246.52;1669283;85;20957;-42
2022/08/01 06:28:47;;;;;;;7.65;2.83;;;;;;;20.08;99.27;100230.11;1714704;82;21100;-43
2022/08/01 06:31:15;;;;;;;13.48;3.75;;;;;;;19.98;99.76;100228.52;1720332;82;20996;-43
2022/08/01 06:33:42;;;;;;;8.33;3.02;;;;;;;19.88;100.00;100238.71;1718841;82;21039;-44
2022/08/01 06:36:09;;;;;;;12.65;4.30;;;;;;;19.73;100.00;100243.60;1714686;82;20997;-43
2022/08/01 06:38:36;;;;;;;9.43;3.58;;;;;;;19.57;100.00;100239.71;1705724;83;21010;-43
2022/08/01 06:41:03;;;;;;;10.13;3.62;;;;;;;19.44;100.00;100237.83;1691612;82;21247;-43
2022/08/01 06:43:31;;;;;;;13.32;3.65;;;;;;;19.34;100.00;100244.57;1705743;84;20972;-44
2022/08/01 06:45:57;;;;;;;7.62;3.83;;;;;;;19.22;100.00;100250.89;1706579;82;21279;-44
2022/08/01 06:48:24;;;;;;;6.65;3.70;;;;;;;19.16;100.00;100247.77;1710184;82;20906;-43
2022/08/01 06:51:07;;;;;;;9.15;3.90;;;;;;;19.12;100.00;100245.81;1715515;82;22764;-43
2022/08/01 06:53:20;;;;;;;11.15;4.70;;;;;;;19.05;100.00;100240.07;1707999;82;21972;-43
2022/08/01 06:55:46;;;;;;;11.48;4.83;;;;;;;18.98;100.00;100241.78;1705822;82;20984;-43
2022/08/01 06:58:13;;;;;;;12.95;5.67;;;;;;;18.92;100.00;100242.97;1705624;82;21020;-43
2022/08/01 07:00:42;;;;;;;8.08;5.70;;;;;;;18.92;100.00;100246.45;1705670;83;21024;-43
2022/08/01 07:03:09;;;;;;;10.80;5.33;;;;;;;18.92;100.00;100245.14;1705731;82;21024;-43
2022/08/01 07:05:36;;;;;;;10.80;6.25;;;;;;;18.95;100.00;100248.06;1705609;83;21481;-43
2022/08/01 07:08:04;;;;;;;12.95;6.10;;;;;;;18.98;100.00;100244.41;1705683;83;20980;-43
2022/08/01 07:10:31;;;;;;;7.33;4.17;;;;;;;18.99;100.00;100236.49;1685519;84;20960;-43
2022/08/01 07:12:59;;;;;;;8.08;4.25;;;;;;;19.06;100.00;100248.77;1705617;84;21068;-43
2022/08/01 07:15:26;;;;;;;7.00;4.12;;;;;;;19.11;100.00;100244.13;1705703;82;20996;-43
2022/08/01 07:17:53;;;;;;;14.18;4.80;;;;;;;19.22;100.00;100245.64;1705854;84;21269;-42
2022/08/01 07:20:20;;;;;;;7.17;4.60;;;;;;;19.36;100.00;100249.26;1705600;84;21045;-43
2022/08/01 07:22:47;;;;;;;9.83;5.17;;;;;;;19.51;100.00;100254.06;1705819;84;20976;-43
2022/08/01 07:25:14;;;;;;;7.75;6.12;;;;;;;19.66;100.00;100253.63;1705627;84;21019;-43
2022/08/01 07:27:41;;;;;;;10.35;5.72;;;;;;;19.84;100.00;100262.16;1705758;84;20988;-43
2022/08/01 07:30:09;;;;;;;8.63;5.70;;;;;;;19.96;100.00;100264.55;1705540;82;22250;-42
2022/08/01 07:32:36;;;;;;;10.65;6.03;;;;;;;20.07;100.00;100263.89;1685648;82;20941;-43
2022/08/01 07:35:04;;;;;;;11.78;5.92;;;;;;;20.29;100.00;100269.13;1705671;82;20948;-42
2022/08/01 07:37:32;;;;;;;11.68;5.87;;;;;;;20.57;100.00;100266.91;1705618;82;21037;-43
2022/08/01 07:39:59;;;;;;;11.60;5.65;;;;;;;20.93;100.00;100248.89;1705876;84;21018;-45
2022/08/01 07:42:25;;;;;;;10.15;5.08;;;;;;;21.24;100.00;100241.63;1705924;82;21565;-44
2022/08/01 07:44:52;;;;;;;8.35;4.33;;;;;;;21.33;100.00;100235.73;1705709;84;20976;-44
2022/08/01 07:47:25;;;;;;;7.83;4.28;;;;;;;21.22;100.00;100233.81;1705748;84;21083;-44
2022/08/01 07:49:52;;;;;;;6.00;3.62;;;;;;;21.05;100.00;100235.41;1705666;83;20936;-43
2022/08/01 07:52:19;;;;;;;4.35;3.30;;;;;;;20.99;100.00;100236.67;1705901;84;21522;-43
2022/08/01 07:54:46;;;;;;;3.33;3.02;;;;;;;20.92;100.00;100242.80;1705902;82;21313;-43
2022/08/01 07:57:13;;;;;;;5.50;3.42;;;;;;;20.89;100.00;100244.77;1705835;82;20972;-43
2022/08/01 07:59:39;;;;;;;4.72;3.30;;;;;;;20.94;100.00;100250.57;1705950;84;20941;-42
2022/08/01 08:02:06;;;;;;;3.27;3.05;;;;;;;21.07;100.00;100250.16;1705922;82;20996;-43
2022/08/01 08:04:33;;;;;;;5.50;3.37;;;;;;;21.21;100.00;100241.34;1705948;82;21051;-43
2022/08/01 08:07:00;;;;;;;3.92;3.55;;;;;;;21.20;100.00;100237.48;1705935;83;21220;-43
2022/08/01 08:09:27;;;;;;;5.22;3.52;;;;;;;21.24;100.00;100234.55;1705874;84;20932;-43
2022/08/01 08:11:54;;;;;;;9.45;3.33;;;;;;;21.34;100.00;100222.08;1705649;83;20913;-43
2022/08/01 08:14:22;;;;;;;6.50;3.60;;;;;;;21.41;100.00;100223.37;1705727;82;20956;-43
2022/08/01 08:16:49;;;;;;;4.17;3.65;;;;;;;21.46;100.00;100214.69;1705840;82;20933;-43
2022/08/01 08:19:16;;;;;;;8.88;4.33;;;;;;;21.50;100.00;100210.89;1705721;82;21076;-43
2022/08/01 08:21:43;;;;;;;6.10;4.90;;;;;;;21.56;100.00;100202.19;1705784;84;21462;-43
2022/08/01 08:24:26;;;;;;;6.95;4.60;;;;;;;21.67;100.00;100210.24;1705884;82;20957;-42
2022/08/01 08:27:00;;;;;;;12.07;4.70;;;;;;;21.80;100.00;100208.91;1705735;83;20988;-42
2022/08/01 08:29:29;;;;;;;10.40;6.35;;;;;;;21.89;100.00;100202.99;1705755;83;20976;-45
2022/08/01 08:31:57;;;;;;;11.85;5.60;;;;;;;21.97;100.00;100203.77;1705795;82;21251;-43
2022/08/01 08:34:24;;;;;;;8.03;6.03;;;;;;;22.04;100.00;100214.23;1705875;82;20960;-43
2022/08/01 08:36:52;;;;;;;11.48;6.10;;;;;;;22.09;100.00;100212.11;1705899;84;21015;-43
2022/08/01 08:39:19;;;;;;;9.30;6.05;;;;;;;22.13;100.00;100214.56;1705840;82;20977;-43
2022/08/01 08:41:47;;;;;;;8.65;5.55;;;;;;;22.13;99.20;100212.75;1705824;84;21028;-43
2022/08/01 08:44:14;;;;;;;7.47;4.72;;;;;;;22.14;99.65;100205.70;1705991;84;21261;-43
2022/08/01 08:46:44;;;;;;;6.80;4.53;;;;;;;22.12;97.73;100208.92;1705828;82;20929;-43
2022/08/01 08:49:12;;;;;;;8.03;4.62;;;;;;;22.07;97.77;100207.92;1705507;82;21247;-43
2022/08/01 08:51:39;;;;;;;4.60;4.20;;;;;;;22.07;98.02;100208.75;1705895;84;20933;-43
2022/08/01 08:54:07;;;;;;;9.48;4.20;;;;;;;22.18;98.65;100212.43;1705773;83;20937;-43
2022/08/01 08:56:35;;;;;;;7.78;4.10;;;;;;;22.31;99.92;100221.62;1705730;84;22071;-43
2022/08/01 08:59:02;;;;;;;4.80;4.00;;;;;;;22.51;99.72;100213.61;1705895;84;21007;-43
2022/08/01 09:01:33;;;;;;;3.42;3.12;;;;;;;22.65;97.50;100208.19;1705952;84;21052;-43
2022/08/01 09:04:01;;;;;;;3.72;3.00;;;;;;;22.79;96.18;100199.25;1705851;84;20913;-43
2022/08/01 09:06:29;;;;;;;6.10;2.92;;;;;;;22.86;93.39;100203.60;1705925;82;21020;-43
2022/08/01 09:08:58;;;;;;;3.65;3.35;;;;;;;22.81;92.76;100204.39;1719211;83;21466;-43
2022/08/01 09:11:27;;;;;;;3.50;3.20;;;;;;;22.79;92.37;100206.31;1719307;82;20900;-43
2022/08/01 09:14:14;;;;;;;5.75;3.58;;;;;;;22.80;94.00;100202.72;1719268;83;21684;-43
2022/08/01 09:16:43;;;;;;;3.02;2.83;;;;;;;22.84;93.21;100202.02;1719416;82;21005;-43
2022/08/01 09:19:18;;;;;;;5.17;3.40;;;;;;;22.76;92.55;100203.44;1719570;83;20951;-43
2022/08/01 09:22:00;;;;;;;4.35;3.27;;;;;;;22.60;92.10;100214.25;1719259;83;21294;-43
2022/08/01 09:24:28;;;;;;;6.15;3.50;;;;;;;22.47;94.27;100230.61;1719498;82;20968;-43
2022/08/01 09:26:55;;;;;;;3.40;3.02;;;;;;;22.38;94.02;100233.41;1692552;83;20916;-43
2022/08/01 09:29:29;;;;;;;3.35;3.05;;;;;;;22.32;93.88;100243.08;1719299;83;20904;-43
2022/08/01 09:31:57;;;;;;;3.52;3.33;;;;;;;22.32;96.17;100241.27;1719447;83;21538;-43
2022/08/01 09:34:32;;;;;;;3.30;2.85;;;;;;;22.44;97.19;100239.55;1719635;83;21164;-43
2022/08/01 09:37:02;;;;;;;7.95;2.95;;;;;;;22.57;96.04;100249.25;1719433;83;21530;-43
2022/08/01 09:39:40;;;;;;;5.62;3.15;;;;;;;22.63;94.33;100252.76;1719594;83;20904;-43
2022/08/01 09:42:26;;;;;;;3.98;3.52;;;;;;;22.64;93.13;100263.20;1719259;83;21003;-43
2022/08/01 09:44:53;;;;;;;3.15;3.00;;;;;;;22.73;94.81;100266.12;1719435;82;20983;-43
2022/08/01 09:47:20;;;;;;;5.95;3.12;;;;;;;22.86;95.25;100273.52;1719421;83;21140;-43
2022/08/01 09:49:56;;;;;;;6.08;3.08;;;;;;;23.01;95.36;100277.28;1719183;83;20988;-43
2022/08/01 09:52:26;;;;;;;5.20;3.30;;;;;;;23.22;93.08;100275.69;1719550;82;21079;-44
2022/08/01 09:55:04;;;;;;;3.62;3.22;;;;;;;23.46;93.26;100282.75;1719307;83;21068;-44
2022/08/01 09:57:32;;;;;;;5.97;3.60;;;;;;;23.73;93.22;100292.17;1719366;83;21604;-43
2022/08/01 10:00:00;;;;;;;4.67;3.37;;;;;;;24.03;92.83;100288.64;1719265;83;21147;-43
2022/08/01 10:02:34;;;;;;;6.20;3.60;;;;;;;24.25;89.43;100297.89;1719168;83;21019;-43
2022/08/01 10:05:03;;;;;;;8.23;4.08;;;;;;;24.40;87.42;100310.84;1719491;83;20992;-42
2022/08/01 10:07:30;;;;;;;12.78;5.85;;;;;;;24.52;85.49;100319.61;1719086;83;20984;-42
2022/08/01 10:10:11;;;;;;;13.38;6.50;;;;;;;24.62;85.09;100328.48;1719251;83;21014;-44
2022/08/01 10:12:37;;;;;;;11.25;5.53;;;;;;;24.63;84.09;100346.06;1719389;82;21211;-43
2022/08/01 10:15:06;;;;;;;12.85;5.70;;;;;;;24.40;83.12;100357.12;1719152;83;20948;-44
2022/08/01 10:17:32;;;;;;;8.60;4.58;;;;;;;24.13;84.03;100368.07;1719267;83;21046;-42
2022/08/01 10:19:59;;;;;;;9.98;5.10;;;;;;;23.82;85.15;100388.39;1719222;82;21054;-44
2022/08/01 10:22:26;;;;;;;10.68;4.97;;;;;;;23.46;86.79;100393.67;1719272;83;21222;-43
2022/08/01 10:24:56;;;;;;;8.68;4.90;;;;;;;23.19;88.07;100391.22;1719249;83;22013;-43
2022/08/01 10:27:23;;;;;;;12.80;4.83;;;;;;;22.95;88.97;100388.08;1719194;82;20975;-43
2022/08/01 10:30:03;;;;;;;7.62;4.10;;;;;;;22.87;90.19;100388.66;1719331;83;20944;-43
2022/08/01 10:32:27;;;;;;;11.50;4.10;;;;;;;22.87;91.34;100386.48;1718952;83;21089;-43
2022/08/01 10:34:54;;;;;;;5.28;3.58;;;;;;;22.94;90.34;100378.02;1719242;82;20979;-43
2022/08/01 10:37:21;;;;;;;7.47;3.77;;;;;;;22.98;89.79;100367.23;1719094;82;21880;-43
2022/08/01 10:39:48;;;;;;;3.90;3.55;;;;;;;23.07;89.95;100371.38;1719557;82;21517;-43
2022/08/01 10:42:15;;;;;;;13.05;4.53;;;;;;;23.09;89.28;100356.73;1719396;83;21011;-43
2022/08/01 10:44:42;;;;;;;6.70;3.70;;;;;;;23.14;89.56;100353.30;1719335;83;21046;-43
2022/08/01 10:47:11;;;;;;;4.55;3.25;;;;;;;23.27;89.96;100349.77;1719334;82;21094;-44
2022/08/01 10:49:51;;;;;;;8.15;3.90;;;;;;;23.49;89.29;100344.58;1719220;82;21239;-43
2022/08/01 10:52:18;;;;;;;3.37;3.08;;;;;;;23.83;88.43;100337.23;1719308;82;20940;-44
2022/08/01 10:54:45;;;;;;;3.17;2.87;;;;;;;24.38;87.29;100345.36;1719239;83;21006;-45
2022/08/01 10:57:12;;;;;;;4.05;2.85;;;;;;;24.88;83.81;100339.30;1719333;83;20944;-44
2022/08/01 10:59:50;;;;;;;3.30;3.00;;;;;;;25.42;83.50;100328.73;1719358;83;20987;-43
2022/08/01 11:02:33;;;;;;;8.33;3.20;;;;;;;25.95;78.58;100328.69;1719569;82;21300;-44
2022/08/01 11:05:09;;;;;;;7.55;3.30;;;;;;;26.27;75.51;100328.70;1725071;82;20987;-44
2022/08/01 11:07:53;;;;;;;6.15;2.83;;;;;;;26.68;73.84;100330.86;1731620;81;21625;-44
2022/08/01 11:10:42;;;;;;;7.65;2.95;;;;;;;27.09;73.72;100320.18;1700090;83;20944;-44
2022/08/01 11:13:10;;;;;;;6.47;2.83;;;;;;;27.53;70.80;100327.25;1667338;86;21011;-43
2022/08/01 11:15:38;;;;;;;3.33;2.95;;;;;;;27.73;67.21;100321.05;1667086;84;21909;-44
2022/08/01 11:18:30;;;;;;;3.83;3.30;;;;;;;27.80;68.50;100327.48;1667006;86;20992;-44
2022/08/01 11:21:01;;;;;;;9.68;2.72;;;;;;;27.93;66.56;100324.52;1667075;86;20992;-45
2022/08/01 11:23:31;;;;;;;4.87;2.80;;;;;;;27.86;65.48;100318.92;1677000;84;21633;-45
2022/08/01 11:26:06;;;;;;;18.17;3.60;;;;;;;28.09;65.00;100319.39;1695115;84;21012;-45
2022/08/01 11:28:34;;;;;;;4.08;3.00;;;;;;;28.20;62.65;100314.92;1695176;84;21274;-45
2022/08/01 11:31:16;;;;;;;6.67;3.02;;;;;;;28.13;65.76;100316.44;1695293;84;21015;-44